Terminal Aerodrome Forecast
Issued by NWS

Home | Current Version | Previous Version | Text Only | Print | Product List | Glossary On
Versions: 1 2 3 4 5 6 7 8 9 10 11 12 13 14
000
FTUS41 KLWX 242300
TAFMTN
TAF
KMTN 242334Z 2500/2524 30007KT P6SM BKN200
     FM250700 VRB03KT P6SM FEW200
     FM251600 28007KT P6SM FEW250
      AMD NOT SKED 2502/2512=

USA.gov is the U.S. government's official web portal to all federal, state and local government web resources and services.